Terminal Aerodrome Forecast
Issued by NWS Salt Lake City, UT

Home | Current Version | Previous Version | Text Only | Print | Product List | Glossary On
Versions: 1 2 3 4 5 6 7 8 9 10 11 12 13 14 15 16 17 18 19 20 21 22 23 24
000
FTUS45 KSLC 232326
TAFCDC
TAF
KCDC 232326Z 2400/2424 13011KT P6SM VCSH SCT080 BKN150
     FM240300 19007KT P6SM FEW080 BKN160
     FM241800 14015G22KT P6SM VCTS SCT070CB BKN120=

USA.gov is the U.S. government's official web portal to all federal, state and local government web resources and services.